Flight Track Log - Related Links

Times and Time Zones

All times are in EDT time to prevent confusion due to time zone crossing. See the N832R flight status page for this flight to view local times or setup timezone preferences in your user account.

Time Position Orientation Groundspeed Altitude Reporting Facility
EDT Latitude Longitude Course Direction KTS MPH feet Rate Location/Type
Tue 03:18:07 PM 43.2006 -93.5583 105° East 190 219 5,400  Level Minneapolis Center
Tue 03:19:10 PM 43.1856 -93.4658 103° East 254 292 6,200 288 Climbing Minneapolis Center
Tue 03:20:12 PM 43.1756 -93.3597 97° East 276 318 6,000 145 Descending Minneapolis Center
Tue 03:21:14 PM 43.1589 -93.2606 103° East 273 314 6,500 1,258 Climbing Minneapolis Center
Tue 03:22:16 PM 43.1417 -93.1578 103° East 275 316 8,600 2,419 Climbing Minneapolis Center
Tue 03:23:00 PM 43.1115 -92.8768 105° East  Level Estimated
Tue 03:23:18 PM 43.1208 -93.0119 101° East 311 358 11,500  Level Minneapolis Center
Tue 03:24:20 PM 43.1008 -92.8817 102° East 341 392 14,400 2,832 Climbing Minneapolis Center
Tue 03:25:23 PM 43.0817 -92.7517 101° East 350 403 17,400 2,784 Climbing Minneapolis Center
Tue 03:26:25 PM 43.0622 -92.6231 102° East 350 403 20,200 2,208 Climbing Minneapolis Center
Tue 03:27:28 PM 43.0361 -92.4675 103° East 351 404 22,000 871 Climbing Chicago Center
Tue 03:28:29 PM 43.0131 -92.3208 102° East 390 449 22,000  Level Minneapolis Center
Tue 03:29:31 PM 42.9897 -92.1722 102° East 402 463 22,000  Level Minneapolis Center
Tue 03:30:34 PM 42.9647 -92.0264 103° East 398 458 22,000 432 Level Chicago Center
Tue 03:31:36 PM 42.9408 -91.8792 102° East 398 458 22,900 1,403 Climbing Chicago Center
Tue 03:32:38 PM 42.9192 -91.7419 102° East 376 433 24,900 2,129 Climbing Chicago Center
Tue 03:33:40 PM 42.8936 -91.5806 102° East 361 415 27,300 2,081 Climbing Chicago Center
Tue 03:34:42 PM 42.8703 -91.4431 103° East 366 421 29,200 1,790 Climbing Chicago Center
Tue 03:35:44 PM 42.8475 -91.3072 103° East 367 422 31,000 1,488 Climbing Chicago Center
Tue 03:36:47 PM 42.8236 -91.1706 103° East 371 427 32,300 1,344 Climbing Chicago Center
Tue 03:37:49 PM 42.8006 -91.0325 103° East 375 432 33,800 823 Climbing Chicago Center
Tue 03:38:51 PM 42.7758 -90.8892 103° East 388 447 34,000 97 Climbing Chicago Center
Tue 03:39:53 PM 42.7444 -90.7072 103° East 413 475 34,000  Level Chicago Center
Tue 03:40:55 PM 42.7164 -90.5550 104° East 418 481 34,000  Level Chicago Center
Tue 03:41:57 PM 42.6900 -90.4014 103° East 420 483 34,000  Level Chicago Center
Tue 03:42:59 PM 42.6611 -90.2508 105° East 415 478 34,000  Level Chicago Center
Tue 03:44:01 PM 42.6353 -90.0981 103° East 417 480 34,000  Level Chicago Center
Tue 03:45:03 PM 42.6014 -89.9156 104° East 418 481 34,000 -145 Level Chicago Center
Tue 03:46:05 PM 42.5736 -89.7644 104° East 418 481 33,700 -432 Descending Chicago Center
Tue 03:47:08 PM 42.5456 -89.6117 104° East 419 482 33,100 -336 Descending Chicago Center
Tue 03:48:10 PM 42.5161 -89.4578 105° East 423 487 33,000 -48 Descending Chicago Center
Tue 03:49:12 PM 42.4878 -89.3056 104° East 422 486 33,000  Level Chicago Center
Tue 03:50:14 PM 42.4536 -89.1256 104° East 408 470 33,000  Level Chicago Center
Tue 03:51:16 PM 42.4228 -88.9664 105° East 409 471 33,000  Level Chicago Center
Tue 03:52:18 PM 42.3961 -88.8283 105° East 410 472 33,000  Level Chicago Center
Tue 03:53:20 PM 42.3667 -88.6792 105° East 411 473 33,000  Level Chicago Center
Tue 03:54:22 PM 42.3381 -88.5314 105° East 410 472 33,000  Level Chicago Center
Tue 03:55:24 PM 42.3019 -88.3533 105° East 410 472 33,000 -290 Level Chicago Center
Tue 03:56:26 PM 42.2700 -88.2031 106° East 415 478 32,400 -912 Descending Chicago Center
Tue 03:57:29 PM 42.2258 -88.0508 111° Southeast 435 501 31,100 -1,296 Descending Chicago Center
Tue 03:58:31 PM 42.1678 -87.9053 118° Southeast 442 509 29,700 -1,306 Descending Chicago Center
Tue 03:59:33 PM 42.1044 -87.7625 121° Southeast 443 510 28,400 -1,403 Descending Chicago Center
Tue 04:00:35 PM 42.0325 -87.6300 126° Southeast 439 505 26,800 -1,548 Descending Chicago Center
Tue 04:01:37 PM 41.9933 -87.4786 109° East 429 494 25,200 -1,306 Descending Chicago Center
Tue 04:02:39 PM 41.9617 -87.2989 103° East 413 475 24,100 -1,258 Descending Chicago Center
Tue 04:03:41 PM 41.9367 -87.1575 103° East 393 452 22,600 -1,742 Descending Chicago Center
Tue 04:04:43 PM 41.9103 -87.0167 104° East 391 450 20,500 -2,129 Descending Chicago Center
Tue 04:05:45 PM 41.8883 -86.8939 103° East 348 400 18,200 -1,790 Descending Chicago Center
Tue 04:06:47 PM 41.8667 -86.7808 104° East 320 368 16,800 -1,355 Descending Chicago Center
Tue 04:07:49 PM 41.8442 -86.6636 104° East 291 335 15,400 -1,776 Descending Chicago Center
Tue 04:08:52 PM 41.8269 -86.5678 104° East 269 310 13,100 -2,352 Descending Chicago Center
Tue 04:09:54 PM 41.8078 -86.4675 104° East 276 318 10,500 -2,419 Descending Chicago Center
Tue 04:10:56 PM 41.7894 -86.3744 105° East 264 304 8,100 -2,468 Descending Chicago Center
Tue 04:11:58 PM 41.7697 -86.2675 104° East 249 287 5,400 -1,984 Descending Chicago Center
Tue 04:13:00 PM 41.7536 -86.1861 105° East 236 272 4,000 -1,210 Descending Chicago Center
Tue 04:14:02 PM 41.7319 -86.1272 116° Southeast 202 232 2,900 -1,016 Descending Chicago Center
Tue 04:15:04 PM 41.7178 -86.0761 110° East 168 193 1,900 -823 Descending Chicago Center
Tue 04:16:06 PM 41.7206 -86.0306 85° East 138 159 1,200 -677 Descending Chicago Center
Tue 04:18:00 PM 41.7167 -86.0000 90° East  Level FlightAware Approximate
Tue 04:25:00 PM 41.7194 -86.0032 90° East  Level Estimated
Tue 04:26:00 PM 41.7167 -86.0000 90° East  Level FlightAware Approximate

Login

Don't have an account? Register now (free) for customized features, flight alerts, and more!